createdAt,value
2022-08-26T00:01:14.611Z,0.00
2022-08-26T00:03:45.210Z,2.00
2022-08-26T00:06:16.294Z,4.50
2022-08-26T00:08:51.565Z,3.33
2022-08-26T00:11:26.577Z,4.00
2022-08-26T00:13:58.592Z,2.00
2022-08-26T00:16:30.868Z,2.00
2022-08-26T00:19:01.936Z,3.50
2022-08-26T00:21:32.130Z,8.00
2022-08-26T00:24:02.267Z,5.00
2022-08-26T00:26:32.303Z,10.00
2022-08-26T00:29:02.768Z,14.25
2022-08-26T00:31:33.306Z,7.00
2022-08-26T00:34:03.737Z,10.75
2022-08-26T00:36:34.643Z,11.33
2022-08-26T00:39:05.046Z,7.33
2022-08-26T00:41:39.343Z,9.50
2022-08-26T00:44:13.076Z,11.00
2022-08-26T00:46:56.333Z,5.50
2022-08-26T00:49:52.758Z,2.00
2022-08-26T00:52:25.269Z,4.50
2022-08-26T00:55:09.151Z,3.50
2022-08-26T00:57:39.642Z,12.00
2022-08-26T01:00:17.461Z,4.50
2022-08-26T01:02:50.181Z,6.50
2022-08-26T01:05:21.994Z,6.00
2022-08-26T01:07:52.538Z,4.00
2022-08-26T01:10:26.602Z,9.00
2022-08-26T01:13:12.917Z,9.00
2022-08-26T01:15:50.982Z,11.00
2022-08-26T01:21:03.141Z,13.00
2022-08-26T01:23:46.600Z,7.50
2022-08-26T01:26:26.580Z,8.00
2022-08-26T01:29:00.171Z,10.00
2022-08-26T01:31:39.064Z,11.00
2022-08-26T01:34:15.543Z,10.00
2022-08-26T01:36:51.370Z,4.00
2022-08-26T01:39:22.740Z,7.00
2022-08-26T01:44:30.802Z,10.00
2022-08-26T01:47:03.348Z,10.50
2022-08-26T01:49:38.822Z,7.50
2022-08-26T01:52:11.868Z,4.00
2022-08-26T01:54:43.049Z,2.50
2022-08-26T01:57:18.718Z,7.00
2022-08-26T01:59:51.499Z,4.00
2022-08-26T02:02:21.779Z,3.33
2022-08-26T02:04:56.401Z,5.50
2022-08-26T02:07:28.263Z,2.00
2022-08-26T02:12:33.577Z,4.00
2022-08-26T02:15:08.342Z,4.00
2022-08-26T02:17:48.875Z,3.50
2022-08-26T02:20:23.402Z,7.50
2022-08-26T02:22:53.777Z,7.00
2022-08-26T02:25:49.470Z,3.00
2022-08-26T02:28:20.305Z,2.00
2022-08-26T02:30:50.910Z,4.00
2022-08-26T02:33:21.195Z,2.00
2022-08-26T02:35:51.233Z,3.50
2022-08-26T02:38:24.824Z,2.00
2022-08-26T02:40:55.759Z,6.00
2022-08-26T02:43:31.732Z,4.50
2022-08-26T02:46:03.802Z,12.25
2022-08-26T02:48:34.888Z,8.50
2022-08-26T02:51:06.803Z,8.67
2022-08-26T02:53:37.119Z,6.00
2022-08-26T02:56:11.326Z,9.00
2022-08-26T02:58:41.631Z,11.00
2022-08-26T03:01:32.006Z,10.50
2022-08-26T03:04:05.788Z,6.00
2022-08-26T03:09:08.078Z,4.00
2022-08-26T03:11:48.265Z,6.00
2022-08-26T03:15:24.161Z,3.50
2022-08-26T03:18:03.872Z,2.00
2022-08-26T03:21:04.408Z,6.00
2022-08-26T03:23:51.997Z,2.50
2022-08-26T03:26:22.560Z,4.67
2022-08-26T03:29:26.597Z,2.00
2022-08-26T03:32:05.780Z,3.00
2022-08-26T03:34:43.139Z,4.67
2022-08-26T03:37:13.408Z,9.33
2022-08-26T03:39:44.483Z,6.00
2022-08-26T03:42:24.816Z,8.00
2022-08-26T03:44:58.695Z,6.00
2022-08-26T03:47:52.803Z,7.00
2022-08-26T03:50:35.829Z,8.50
2022-08-26T03:53:21.240Z,7.00
2022-08-26T03:56:14.673Z,4.67
2022-08-26T03:58:57.965Z,4.00
2022-08-26T04:04:01.935Z,7.50
2022-08-26T04:06:35.974Z,5.00
2022-08-26T04:09:15.406Z,9.50
2022-08-26T04:11:50.299Z,6.00
2022-08-26T04:14:25.294Z,4.00
2022-08-26T04:16:57.682Z,3.33
2022-08-26T04:19:29.321Z,2.67
2022-08-26T04:22:00.201Z,5.50
2022-08-26T04:24:32.316Z,4.00
2022-08-26T04:27:04.774Z,6.00
2022-08-26T04:29:40.379Z,3.50
2022-08-26T04:32:11.549Z,4.00
2022-08-26T04:34:43.444Z,2.00
2022-08-26T04:37:15.238Z,4.00
2022-08-26T04:42:18.858Z,2.00
2022-08-26T04:44:53.875Z,4.00
2022-08-26T04:49:57.947Z,2.00
2022-08-26T04:52:28.423Z,4.00
2022-08-26T04:54:58.972Z,2.50
2022-08-26T04:57:32.143Z,3.50
2022-08-26T05:00:03.330Z,2.00
2022-08-26T05:02:34.164Z,2.00
2022-08-26T05:05:06.783Z,2.00
2022-08-26T05:07:37.562Z,3.00
2022-08-26T05:10:09.871Z,2.00
2022-08-26T05:15:15.942Z,6.00
2022-08-26T05:17:47.098Z,4.00
2022-08-26T05:20:22.618Z,2.00
2022-08-26T05:22:57.355Z,3.50
2022-08-26T05:25:27.519Z,2.00
2022-08-26T05:27:58.238Z,3.50
2022-08-26T05:30:28.619Z,2.00
2022-08-26T05:32:58.788Z,2.00
2022-08-26T05:35:35.448Z,2.00
2022-08-26T05:38:12.498Z,2.00
2022-08-26T05:40:52.843Z,4.00
2022-08-26T05:43:24.009Z,2.67
2022-08-26T05:45:56.954Z,2.00
2022-08-26T05:48:27.443Z,2.00
2022-08-26T05:50:57.485Z,2.67
2022-08-26T05:53:27.779Z,2.00
2022-08-26T05:55:59.881Z,2.00
2022-08-26T05:58:30.841Z,2.00
2022-08-26T06:01:05.013Z,2.00
2022-08-26T06:03:38.650Z,1.50
2022-08-26T06:06:12.617Z,4.00
2022-08-26T06:08:43.186Z,3.33
2022-08-26T06:11:18.520Z,6.00
2022-08-26T06:13:49.432Z,2.00
2022-08-26T06:16:22.668Z,6.00
2022-08-26T06:18:56.269Z,8.50
2022-08-26T06:21:31.250Z,7.50
2022-08-26T06:24:27.194Z,8.00
2022-08-26T06:27:02.611Z,2.00
2022-08-26T06:29:37.735Z,2.67
2022-08-26T06:32:08.790Z,2.00
2022-08-26T06:34:39.626Z,5.50
2022-08-26T06:37:10.124Z,2.00
2022-08-26T06:39:41.161Z,2.00
2022-08-26T06:42:12.160Z,4.00
2022-08-26T06:44:44.877Z,2.00
2022-08-26T06:47:15.227Z,2.00
2022-08-26T06:49:45.331Z,4.00
2022-08-26T06:52:16.509Z,3.50
2022-08-26T06:54:50.510Z,4.00
2022-08-26T06:57:21.357Z,2.00
2022-08-26T06:59:51.565Z,2.00
2022-08-26T07:02:21.770Z,4.00
2022-08-26T07:04:52.126Z,6.00
2022-08-26T07:07:26.772Z,1.00
2022-08-26T07:09:57.666Z,2.00
2022-08-26T07:12:27.807Z,4.00
2022-08-26T07:14:59.357Z,4.00
2022-08-26T07:17:29.922Z,7.50
2022-08-26T07:20:00.027Z,3.00
2022-08-26T07:22:30.268Z,3.00
2022-08-26T07:27:30.307Z,3.00
2022-08-26T07:30:00.408Z,2.00
2022-08-26T07:32:33.478Z,2.00
2022-08-26T07:35:03.622Z,2.00
2022-08-26T07:37:35.518Z,4.00
2022-08-26T07:40:11.005Z,2.00
2022-08-26T07:45:11.980Z,2.50
2022-08-26T07:47:42.009Z,2.00
2022-08-26T07:50:13.260Z,2.50
2022-08-26T07:52:44.003Z,2.00
2022-08-26T07:55:15.388Z,2.00
2022-08-26T07:57:46.584Z,5.33
2022-08-26T08:00:18.695Z,2.00
2022-08-26T08:02:50.494Z,2.50
2022-08-26T08:05:23.531Z,4.00
2022-08-26T08:08:27.390Z,3.50
2022-08-26T08:10:58.115Z,3.50
2022-08-26T08:13:30.894Z,2.50
2022-08-26T08:16:02.031Z,2.00
2022-08-26T08:18:32.396Z,6.00
2022-08-26T08:21:21.053Z,2.50
2022-08-26T08:23:55.709Z,2.50
2022-08-26T08:26:27.414Z,4.00
2022-08-26T08:28:59.435Z,3.00
2022-08-26T08:36:56.301Z,4.00
2022-08-26T08:39:27.746Z,3.50
2022-08-26T08:42:12.850Z,6.00
2022-08-26T08:44:52.129Z,4.00
2022-08-26T08:47:39.420Z,3.00
2022-08-26T08:50:48.646Z,2.00
2022-08-26T08:53:32.462Z,2.00
2022-08-26T08:56:24.847Z,2.00
2022-08-26T08:59:16.274Z,2.00
2022-08-26T09:01:52.437Z,2.00
2022-08-26T09:04:57.947Z,2.00
2022-08-26T09:07:53.982Z,2.00
2022-08-26T09:10:48.956Z,2.00
2022-08-26T09:13:26.278Z,4.00
2022-08-26T09:16:20.690Z,2.00
2022-08-26T09:19:06.399Z,2.00
2022-08-26T09:21:37.323Z,2.00
2022-08-26T09:24:11.275Z,3.50
2022-08-26T09:26:49.773Z,2.00
2022-08-26T09:29:31.094Z,4.50
2022-08-26T09:32:26.766Z,6.00
2022-08-26T09:35:02.158Z,2.00
2022-08-26T09:37:53.168Z,4.00
2022-08-26T09:40:35.347Z,5.50
2022-08-26T09:43:14.900Z,3.33
2022-08-26T09:45:50.128Z,2.00
2022-08-26T09:48:36.222Z,5.50
2022-08-26T09:51:30.105Z,5.50
2022-08-26T09:54:08.089Z,4.67
2022-08-26T09:56:40.998Z,6.00
2022-08-26T09:59:14.039Z,7.33
2022-08-26T10:01:49.487Z,4.50
2022-08-26T10:04:27.522Z,2.50
2022-08-26T10:07:06.950Z,7.00
2022-08-26T10:09:44.324Z,6.00
2022-08-26T10:12:22.451Z,4.00
2022-08-26T10:14:58.084Z,3.33
2022-08-26T10:17:54.487Z,6.00
2022-08-26T10:20:39.759Z,10.00
2022-08-26T10:23:18.662Z,13.75
2022-08-26T10:25:56.959Z,7.00
2022-08-26T10:28:58.593Z,7.33
2022-08-26T10:34:00.648Z,6.00
2022-08-26T10:39:57.027Z,9.50
2022-08-26T10:42:39.362Z,11.00
2022-08-26T10:45:19.445Z,12.25
2022-08-26T10:48:02.529Z,10.00
2022-08-26T10:50:39.884Z,15.25
2022-08-26T10:53:25.251Z,13.50
2022-08-26T10:56:18.766Z,10.00
2022-08-26T10:58:49.233Z,6.50
2022-08-26T11:01:53.584Z,2.50
2022-08-26T11:04:27.088Z,2.00
2022-08-26T11:07:31.726Z,2.00
2022-08-26T11:10:15.204Z,4.00
2022-08-26T11:12:49.188Z,2.00
2022-08-26T11:15:24.941Z,5.00
2022-08-26T11:17:57.518Z,5.00
2022-08-26T11:20:36.589Z,6.50
2022-08-26T11:23:25.029Z,2.50
2022-08-26T11:26:01.470Z,6.00
2022-08-26T11:28:37.085Z,6.00
2022-08-26T11:31:12.051Z,4.67
2022-08-26T11:33:59.717Z,2.00
2022-08-26T11:36:56.392Z,2.00
2022-08-26T11:39:36.916Z,4.67
2022-08-26T11:42:32.220Z,3.00
2022-08-26T11:45:05.764Z,2.00
2022-08-26T11:47:35.988Z,2.00
2022-08-26T11:50:15.283Z,5.00
2022-08-26T11:53:03.102Z,5.50
2022-08-26T11:55:36.077Z,2.50
2022-08-26T11:58:08.828Z,2.00
2022-08-26T12:01:09.813Z,2.50
2022-08-26T12:03:47.971Z,2.00
2022-08-26T12:06:31.542Z,6.50
2022-08-26T12:09:07.026Z,4.50
2022-08-26T12:11:40.755Z,1.00
2022-08-26T12:16:49.163Z,3.50
2022-08-26T12:19:32.652Z,4.00
2022-08-26T12:22:09.539Z,5.50
2022-08-26T12:24:48.975Z,6.00
2022-08-26T12:27:38.603Z,2.50
2022-08-26T12:30:14.022Z,4.00
2022-08-26T12:32:58.085Z,10.50
2022-08-26T12:35:30.275Z,5.50
2022-08-26T12:38:03.414Z,6.00
2022-08-26T12:40:41.295Z,3.50
2022-08-26T12:43:14.983Z,2.00
2022-08-26T12:46:01.861Z,3.00
2022-08-26T12:48:38.683Z,4.00
2022-08-26T12:51:18.180Z,3.33
2022-08-26T12:53:51.440Z,0.00
2022-08-26T12:56:48.391Z,0.00
2022-08-26T12:59:27.489Z,0.00
2022-08-26T13:01:58.762Z,8.00
2022-08-26T13:04:44.911Z,2.00
2022-08-26T13:07:25.768Z,0.67
2022-08-26T13:09:58.945Z,2.00
2022-08-26T13:12:38.799Z,1.50
2022-08-26T13:15:09.753Z,0.00
2022-08-26T13:17:40.566Z,0.00
2022-08-26T13:20:11.309Z,0.00
2022-08-26T13:25:19.767Z,2.00
2022-08-26T13:27:50.405Z,0.00
2022-08-26T13:30:21.155Z,2.67
2022-08-26T13:33:03.060Z,2.00
2022-08-26T13:35:34.128Z,0.50
2022-08-26T13:38:04.637Z,0.00
2022-08-26T13:40:37.376Z,0.00
2022-08-26T13:43:07.676Z,2.00
2022-08-26T13:45:38.125Z,2.00
2022-08-26T13:48:09.787Z,0.00
2022-08-26T13:50:40.072Z,2.00
2022-08-26T13:53:10.403Z,0.00
2022-08-26T13:55:41.026Z,1.00
2022-08-26T13:58:12.417Z,0.00
2022-08-26T14:00:43.646Z,0.00
2022-08-26T14:03:14.037Z,0.00
2022-08-26T14:05:44.478Z,0.50
2022-08-26T14:08:14.717Z,1.50
2022-08-26T14:10:45.127Z,0.00
2022-08-26T14:13:15.955Z,0.00
2022-08-26T14:15:46.252Z,0.00
2022-08-26T14:18:20.566Z,3.00
2022-08-26T14:20:54.850Z,0.00
2022-08-26T14:23:25.295Z,0.00
2022-08-26T14:25:56.418Z,2.00
2022-08-26T14:28:27.292Z,2.00
2022-08-26T14:31:00.814Z,0.00
2022-08-26T14:33:34.712Z,2.00
2022-08-26T14:36:23.730Z,1.50
2022-08-26T14:38:55.857Z,0.00
2022-08-26T14:41:26.687Z,1.00
2022-08-26T14:44:04.006Z,2.00
2022-08-26T14:46:42.410Z,0.00
2022-08-26T14:49:16.433Z,2.00
2022-08-26T14:51:48.761Z,0.00
2022-08-26T14:54:20.680Z,0.00
2022-08-26T14:59:30.057Z,0.00
2022-08-26T15:02:03.026Z,0.00
2022-08-26T15:04:33.879Z,0.00
2022-08-26T15:07:05.217Z,2.00
2022-08-26T15:09:38.812Z,0.00
2022-08-26T15:12:09.241Z,2.00
2022-08-26T15:14:39.644Z,1.50
2022-08-26T15:17:11.120Z,0.00
2022-08-26T15:19:41.797Z,0.00
2022-08-26T15:22:11.872Z,1.00
2022-08-26T15:24:42.546Z,1.50
2022-08-26T15:27:13.955Z,2.00
2022-08-26T15:29:47.921Z,2.00
2022-08-26T15:32:18.445Z,6.50
2022-08-26T15:34:54.462Z,2.00
2022-08-26T15:37:26.491Z,6.00
2022-08-26T15:39:58.530Z,2.50
2022-08-26T15:42:29.622Z,2.00
2022-08-26T15:45:00.277Z,2.00
2022-08-26T15:47:31.344Z,3.00
2022-08-26T15:50:06.108Z,2.00
2022-08-26T15:52:36.725Z,2.00
2022-08-26T15:55:07.459Z,2.00
2022-08-26T15:57:38.312Z,2.50
2022-08-26T16:00:10.667Z,2.50
2022-08-26T16:02:44.017Z,2.00
2022-08-26T16:05:14.618Z,2.00
2022-08-26T16:07:44.574Z,0.00
2022-08-26T16:10:14.702Z,2.00
2022-08-26T16:12:45.185Z,2.00
2022-08-26T16:15:18.649Z,2.00
2022-08-26T16:20:21.795Z,3.00
2022-08-26T16:22:54.402Z,2.00
2022-08-26T16:25:25.059Z,4.00
2022-08-26T16:27:56.060Z,7.50
2022-08-26T16:30:26.723Z,4.00
2022-08-26T16:32:59.413Z,3.00
2022-08-26T16:35:29.916Z,7.50
2022-08-26T16:38:02.155Z,4.00
2022-08-26T16:40:32.700Z,9.50
2022-08-26T16:43:02.881Z,4.00
2022-08-26T16:45:33.180Z,2.00
2022-08-26T16:48:03.845Z,2.00
2022-08-26T16:50:34.652Z,5.00
2022-08-26T16:55:35.932Z,4.00
2022-08-26T16:58:06.150Z,2.00
2022-08-26T17:00:36.227Z,2.00
2022-08-26T17:03:06.482Z,3.50
2022-08-26T17:05:38.137Z,2.00
2022-08-26T17:08:08.733Z,2.00
2022-08-26T17:10:39.159Z,4.00
2022-08-26T17:13:09.336Z,5.50
2022-08-26T17:15:39.585Z,2.00
2022-08-26T17:18:10.430Z,2.00
2022-08-26T17:20:40.579Z,2.00
2022-08-26T17:23:10.791Z,2.00
2022-08-26T17:28:13.196Z,2.00
2022-08-26T17:30:44.153Z,4.00
2022-08-26T17:33:14.238Z,2.00
2022-08-26T17:35:47.459Z,2.00
2022-08-26T17:38:17.632Z,4.00
2022-08-26T17:43:17.036Z,2.67
2022-08-26T17:45:47.455Z,2.00
2022-08-26T17:48:18.454Z,2.00
2022-08-26T17:50:49.368Z,2.50
2022-08-26T17:53:20.085Z,2.00
2022-08-26T17:55:51.165Z,6.00
2022-08-26T17:58:23.619Z,2.00
2022-08-26T18:00:55.985Z,3.33
2022-08-26T18:03:26.239Z,2.00
2022-08-26T18:05:56.360Z,2.00
2022-08-26T18:08:26.838Z,4.00
2022-08-26T18:10:56.894Z,3.50
2022-08-26T18:13:27.042Z,2.00
2022-08-26T18:15:57.072Z,2.00
2022-08-26T18:18:27.985Z,6.50
2022-08-26T18:21:07.237Z,4.00
2022-08-26T18:23:37.164Z,2.00
2022-08-26T18:26:07.784Z,2.50
2022-08-26T18:28:41.159Z,2.00
2022-08-26T18:31:14.339Z,4.00
2022-08-26T18:33:45.003Z,2.67
2022-08-26T18:36:25.018Z,4.00
2022-08-26T18:38:55.496Z,2.00
2022-08-26T18:41:30.015Z,2.00
2022-08-26T18:44:00.772Z,8.00
2022-08-26T18:46:31.107Z,4.00
2022-08-26T18:49:01.122Z,4.00
2022-08-26T18:51:34.242Z,2.00
2022-08-26T18:54:07.878Z,2.00
2022-08-26T18:56:40.514Z,3.50
2022-08-26T18:59:11.498Z,3.00
2022-08-26T19:01:43.657Z,2.00
2022-08-26T19:04:15.586Z,2.50
2022-08-26T19:06:48.819Z,4.00
2022-08-26T19:09:20.966Z,5.50
2022-08-26T19:11:51.059Z,4.00
2022-08-26T19:14:21.233Z,2.00
2022-08-26T19:16:53.731Z,2.50
2022-08-26T19:19:28.108Z,4.00
2022-08-26T19:21:58.328Z,2.00
2022-08-26T19:24:29.477Z,2.00
2022-08-26T19:27:03.821Z,4.00
2022-08-26T19:29:36.845Z,2.00
2022-08-26T19:32:08.394Z,2.00
2022-08-26T19:34:39.569Z,3.50
2022-08-26T19:37:09.648Z,4.00
2022-08-26T19:39:40.069Z,2.00
2022-08-26T19:42:09.989Z,4.00
2022-08-26T19:44:58.098Z,3.00
2022-08-26T19:47:28.217Z,2.00
2022-08-26T19:49:59.112Z,1.00
2022-08-26T19:52:29.957Z,2.50
2022-08-26T19:55:02.242Z,5.00
2022-08-26T19:57:32.591Z,2.00
2022-08-26T20:00:02.771Z,3.00
2022-08-26T20:02:35.362Z,2.00
2022-08-26T20:05:07.799Z,2.00
2022-08-26T20:07:38.194Z,2.00
2022-08-26T20:10:11.204Z,2.00
2022-08-26T20:12:43.010Z,2.00
2022-08-26T20:15:14.444Z,6.00
2022-08-26T20:17:47.666Z,2.00
2022-08-26T20:20:37.765Z,2.50
2022-08-26T20:23:07.918Z,2.00
2022-08-26T20:25:37.948Z,2.00
2022-08-26T20:28:08.028Z,3.50
2022-08-26T20:30:38.069Z,4.50
2022-08-26T20:33:08.150Z,2.00
2022-08-26T20:35:38.299Z,2.00
2022-08-26T20:38:08.598Z,3.00
2022-08-26T20:40:38.818Z,2.00
2022-08-26T20:43:08.885Z,2.00
2022-08-26T20:45:38.924Z,2.00
2022-08-26T20:48:09.363Z,3.50
2022-08-26T20:50:40.335Z,2.00
2022-08-26T20:53:10.419Z,2.00
2022-08-26T20:55:40.882Z,4.00
2022-08-26T21:00:41.002Z,2.50
2022-08-26T21:03:11.362Z,2.00
2022-08-26T21:05:41.359Z,4.00
2022-08-26T21:08:11.625Z,6.00
2022-08-26T21:10:42.684Z,4.00
2022-08-26T21:13:13.443Z,2.00
2022-08-26T21:15:43.602Z,4.00
2022-08-26T21:18:13.885Z,2.50
2022-08-26T21:20:43.874Z,2.00
2022-08-26T21:23:16.037Z,3.00
2022-08-26T21:25:47.085Z,2.00
2022-08-26T21:28:18.543Z,4.00
2022-08-26T21:30:48.718Z,3.33
2022-08-26T21:33:18.767Z,1.33
2022-08-26T21:35:57.939Z,2.00
2022-08-26T21:38:28.558Z,4.00
2022-08-26T21:41:16.629Z,3.00
2022-08-26T21:46:23.249Z,5.00
2022-08-26T21:48:59.950Z,4.00
2022-08-26T21:51:33.488Z,2.50
2022-08-26T21:54:09.926Z,3.33
2022-08-26T21:56:47.983Z,2.00
2022-08-26T21:59:20.435Z,5.00
2022-08-26T22:01:52.426Z,4.00
2022-08-26T22:04:23.220Z,4.00
2022-08-26T22:06:56.722Z,2.50
2022-08-26T22:09:29.193Z,4.00
2022-08-26T22:12:00.224Z,4.00
2022-08-26T22:14:31.072Z,6.00
2022-08-26T22:17:03.789Z,4.00
2022-08-26T22:19:34.164Z,8.50
2022-08-26T22:22:17.228Z,4.67
2022-08-26T22:24:47.227Z,2.00
2022-08-26T22:27:17.249Z,3.50
2022-08-26T22:29:49.271Z,4.00
2022-08-26T22:32:19.841Z,2.00
2022-08-26T22:34:49.917Z,4.00
2022-08-26T22:37:19.928Z,5.33
2022-08-26T22:39:50.008Z,2.00
2022-08-26T22:42:20.100Z,4.00
2022-08-26T22:44:50.568Z,3.50
2022-08-26T22:47:20.635Z,4.00
2022-08-26T22:49:50.789Z,6.00
2022-08-26T22:52:20.791Z,7.33
2022-08-26T22:54:50.903Z,2.00
2022-08-26T22:57:22.368Z,4.00
2022-08-26T22:59:52.440Z,6.00
2022-08-26T23:02:23.492Z,4.00
2022-08-26T23:04:53.699Z,4.67
2022-08-26T23:07:24.705Z,4.00
2022-08-26T23:09:54.725Z,4.00
2022-08-26T23:14:54.263Z,5.50
2022-08-26T23:17:24.724Z,5.50
2022-08-26T23:19:56.669Z,2.00
2022-08-26T23:22:31.149Z,2.00
2022-08-26T23:25:07.804Z,6.00
2022-08-26T23:27:41.275Z,8.00
2022-08-26T23:30:18.197Z,2.00
2022-08-26T23:32:49.645Z,2.67
2022-08-26T23:35:24.451Z,4.00
2022-08-26T23:37:55.859Z,2.00
2022-08-26T23:40:36.184Z,2.50
2022-08-26T23:43:09.536Z,2.00
2022-08-26T23:48:09.486Z,2.50
2022-08-26T23:50:57.545Z,0.00
2022-08-26T23:53:27.629Z,0.00
2022-08-26T23:55:57.863Z,3.50
2022-08-26T23:58:27.922Z,0.00
